Time;durP1;ratioP1;P1;durP2;ratioP2;P2;SDS_P1;SDS_P2;PMS_P1;PMS_P2;Temp;Humidity;BMP_temperature;BMP_pressure;BME280_temperature;BME280_humidity;BME280_pressure;Samples;Min_cycle;Max_cycle;Signal;HPM_P1;HPM_P2
2022/03/17 00:00:18;;;;;;;26.98;19.80;;;12.10;88.00;;;;;;5045182;28;20021;-82
2022/03/17 00:02:44;;;;;;;24.70;19.13;;;12.10;87.90;;;;;;5048704;28;20497;-84
2022/03/17 00:05:12;;;;;;;24.30;18.33;;;12.10;88.00;;;;;;5052297;28;20445;-83
2022/03/17 00:07:40;;;;;;;21.35;18.00;;;12.00;87.90;;;;;;5039608;28;20038;-84
2022/03/17 00:10:09;;;;;;;21.38;17.35;;;11.90;88.10;;;;;;5043352;28;20037;-82
2022/03/17 00:12:36;;;;;;;22.60;18.55;;;12.00;88.10;;;;;;5055665;28;20053;-82
2022/03/17 00:15:06;;;;;;;23.83;19.17;;;11.90;88.10;;;;;;5041564;28;20026;-81
2022/03/17 00:17:33;;;;;;;26.40;21.05;;;11.90;88.20;;;;;;5040191;28;20469;-87
2022/03/17 00:20:00;;;;;;;28.67;25.45;;;11.80;88.40;;;;;;5060820;28;20025;-86
2022/03/17 00:22:27;;;;;;;30.33;26.83;;;11.20;86.80;;;;;;5053731;28;20121;-84
2022/03/17 00:24:54;;;;;;;32.58;26.77;;;10.80;87.50;;;;;;5061396;28;20044;-81
2022/03/17 00:27:21;;;;;;;36.22;29.58;;;10.50;87.00;;;;;;5044222;28;22668;-82
2022/03/17 00:29:50;;;;;;;39.10;31.40;;;10.40;87.50;;;;;;5028364;28;20033;-81
2022/03/17 00:32:17;;;;;;;42.10;30.67;;;10.20;88.00;;;;;;5038527;28;20499;-84
2022/03/17 00:37:43;;;;;;;41.08;28.55;;;10.00;88.40;;;;;;5038396;28;20041;-81
2022/03/17 00:40:11;;;;;;;39.38;28.95;;;9.90;88.10;;;;;;5027225;28;20043;-81
2022/03/17 00:42:39;;;;;;;39.33;28.15;;;9.80;88.00;;;;;;5032991;28;20540;-81
2022/03/17 00:45:09;;;;;;;38.63;28.85;;;9.80;87.90;;;;;;5030209;28;20473;-81
2022/03/17 00:47:37;;;;;;;44.05;30.27;;;9.70;87.80;;;;;;5029478;28;20040;-81
2022/03/17 00:50:04;;;;;;;42.47;29.33;;;9.70;87.90;;;;;;5027651;28;20034;-80
2022/03/17 00:52:30;;;;;;;39.80;28.38;;;9.70;87.30;;;;;;5028282;28;20029;-81
2022/03/17 00:54:55;;;;;;;36.58;27.77;;;9.60;87.40;;;;;;5035829;28;20325;-81
2022/03/17 00:57:21;;;;;;;41.50;26.88;;;9.60;87.30;;;;;;5031450;28;20184;-80
2022/03/17 00:59:48;;;;;;;38.97;27.10;;;9.60;87.10;;;;;;5034643;28;20045;-80
2022/03/17 01:02:14;;;;;;;40.90;26.65;;;9.60;86.80;;;;;;5025497;28;20493;-81
2022/03/17 01:04:40;;;;;;;33.90;25.30;;;9.60;86.60;;;;;;5028119;28;20037;-80
2022/03/17 01:07:06;;;;;;;37.15;24.73;;;9.60;86.30;;;;;;5034291;28;20462;-83
2022/03/17 01:09:33;;;;;;;33.50;24.95;;;9.60;86.20;;;;;;5031246;28;20426;-81
2022/03/17 01:11:59;;;;;;;35.78;26.02;;;9.60;86.20;;;;;;5027024;28;20060;-81
2022/03/17 01:14:25;;;;;;;32.83;25.33;;;9.60;86.10;;;;;;5031680;28;20032;-81
2022/03/17 01:16:50;;;;;;;35.13;24.35;;;9.60;85.70;;;;;;5029291;28;20037;-84
2022/03/17 01:19:19;;;;;;;36.03;26.38;;;9.60;85.80;;;;;;5024035;28;20645;-83
2022/03/17 01:21:46;;;;;;;33.30;25.02;;;9.50;85.70;;;;;;5031701;28;20041;-81
2022/03/17 01:24:12;;;;;;;37.70;26.92;;;9.50;85.90;;;;;;5023132;28;21092;-82
2022/03/17 01:26:38;;;;;;;36.60;25.67;;;9.50;85.60;;;;;;5026761;28;20050;-81
2022/03/17 01:29:03;;;;;;;34.38;25.92;;;9.50;85.50;;;;;;5034281;28;20041;-83
2022/03/17 01:31:29;;;;;;;32.35;24.67;;;9.50;85.40;;;;;;5029484;28;20444;-80
2022/03/17 01:33:55;;;;;;;36.28;25.85;;;9.50;85.40;;;;;;5029399;28;20518;-81
2022/03/17 01:36:20;;;;;;;34.63;25.08;;;9.50;85.20;;;;;;5029500;28;20084;-81
2022/03/17 01:38:46;;;;;;;32.45;25.10;;;9.40;85.10;;;;;;5038906;28;20071;-80
2022/03/17 01:41:12;;;;;;;36.45;26.50;;;9.40;85.20;;;;;;5033576;28;20037;-81
2022/03/17 01:43:37;;;;;;;35.50;25.75;;;9.40;85.30;;;;;;5026054;28;20477;-81
2022/03/17 01:46:03;;;;;;;36.72;25.17;;;9.40;85.30;;;;;;5028914;28;20107;-80
2022/03/17 01:48:29;;;;;;;36.67;26.90;;;9.40;85.50;;;;;;5027961;28;20459;-81
2022/03/17 01:50:54;;;;;;;36.20;25.02;;;9.40;85.40;;;;;;5025170;28;20025;-81
2022/03/17 01:53:22;;;;;;;35.90;24.70;;;9.40;85.40;;;;;;5029122;28;20072;-81
2022/03/17 01:55:49;;;;;;;31.67;21.85;;;9.40;85.30;;;;;;5028401;28;20028;-81
2022/03/17 01:58:15;;;;;;;32.13;22.30;;;9.30;84.80;;;;;;5036190;28;20512;-81
2022/03/17 02:00:42;;;;;;;30.00;21.45;;;9.20;84.80;;;;;;5023768;28;20770;-81
2022/03/17 02:03:08;;;;;;;31.35;21.95;;;9.20;84.90;;;;;;5026627;28;20601;-81
2022/03/17 02:05:34;;;;;;;30.70;20.33;;;9.20;84.90;;;;;;5027315;28;20126;-82
2022/03/17 02:08:01;;;;;;;29.35;20.17;;;9.20;84.90;;;;;;5023747;28;20022;-81
2022/03/17 02:10:27;;;;;;;32.50;21.30;;;9.20;84.90;;;;;;5023902;28;20032;-82
2022/03/17 02:13:11;;;;;;;32.55;20.90;;;9.20;85.10;;;;;;5024878;28;20504;-82
2022/03/17 02:15:37;;;;;;;29.75;21.15;;;9.10;85.00;;;;;;5032911;28;20057;-81
2022/03/17 02:18:06;;;;;;;30.70;22.02;;;9.10;85.20;;;;;;5020214;28;20145;-81
2022/03/17 02:20:33;;;;;;;31.35;19.30;;;9.10;85.40;;;;;;5028577;28;20037;-80
2022/03/17 02:25:57;;;;;;;24.98;16.92;;;9.00;84.60;;;;;;5024493;28;20307;-81
2022/03/17 02:28:26;;;;;;;25.10;17.00;;;8.90;84.40;;;;;;5031928;28;20509;-81
2022/03/17 02:30:52;;;;;;;29.95;15.80;;;9.00;84.40;;;;;;5023059;28;20124;-80
2022/03/17 02:33:18;;;;;;;22.40;15.13;;;8.90;83.90;;;;;;5026048;28;20049;-82
2022/03/17 02:35:45;;;;;;;26.67;13.90;;;9.00;84.10;;;;;;5028139;28;20059;-81
2022/03/17 02:38:14;;;;;;;23.48;13.15;;;8.90;84.10;;;;;;5021533;28;20041;-80
2022/03/17 02:40:42;;;;;;;20.98;13.60;;;8.90;84.10;;;;;;5020703;28;20033;-81
2022/03/17 02:43:08;;;;;;;22.00;12.90;;;8.80;84.20;;;;;;5022373;28;20088;-81
2022/03/17 02:45:35;;;;;;;21.73;12.55;;;8.80;84.30;;;;;;5027821;28;20037;-81
2022/03/17 02:48:03;;;;;;;22.45;12.70;;;8.80;84.30;;;;;;5032734;28;20051;-80
2022/03/17 02:50:29;;;;;;;16.25;11.27;;;8.70;84.10;;;;;;5031446;28;20098;-80
2022/03/17 02:52:54;;;;;;;17.73;10.75;;;8.70;83.90;;;;;;5022948;28;20033;-81
2022/03/17 02:55:20;;;;;;;15.30;10.68;;;8.60;83.90;;;;;;5027017;28;20483;-80
2022/03/17 02:57:46;;;;;;;15.55;10.00;;;8.60;84.00;;;;;;5023420;28;20025;-83
2022/03/17 03:00:13;;;;;;;17.70;10.85;;;8.60;84.10;;;;;;5022676;28;20481;-81
2022/03/17 03:02:39;;;;;;;21.08;12.07;;;8.60;84.00;;;;;;5023615;28;20547;-80
2022/03/17 03:05:06;;;;;;;18.42;12.18;;;8.60;84.20;;;;;;5033548;28;20035;-81
2022/03/17 03:07:32;;;;;;;19.17;12.75;;;8.60;84.40;;;;;;5023949;28;20583;-83
2022/03/17 03:09:58;;;;;;;20.33;12.55;;;8.60;84.50;;;;;;5026523;28;20103;-84
2022/03/17 03:12:24;;;;;;;23.42;13.60;;;8.60;84.50;;;;;;5035384;28;20030;-83
2022/03/17 03:14:50;;;;;;;18.50;13.13;;;8.60;84.50;;;;;;5032722;28;20248;-81
2022/03/17 03:17:17;;;;;;;21.85;12.43;;;8.60;84.60;;;;;;5027806;28;20040;-81
2022/03/17 03:19:43;;;;;;;22.27;13.75;;;8.70;84.70;;;;;;5028846;28;20547;-81
2022/03/17 03:22:09;;;;;;;19.08;12.70;;;8.60;84.70;;;;;;5021081;28;20571;-81
2022/03/17 03:24:38;;;;;;;22.35;12.32;;;8.60;84.60;;;;;;5023527;28;20105;-80
2022/03/17 03:27:05;;;;;;;15.63;11.73;;;8.60;84.40;;;;;;5026555;28;20042;-81
2022/03/17 03:29:31;;;;;;;19.25;12.50;;;8.60;84.30;;;;;;5028977;28;20028;-82
2022/03/17 03:32:03;;;;;;;15.73;12.15;;;8.60;84.20;;;;;;5026211;28;20521;-81
2022/03/17 03:34:30;;;;;;;19.35;12.77;;;8.60;84.20;;;;;;5041852;28;20040;-79
2022/03/17 03:39:41;;;;;;;16.13;11.93;;;8.60;84.20;;;;;;5026740;28;20171;-80
2022/03/17 03:42:08;;;;;;;17.52;12.50;;;8.50;84.20;;;;;;5022107;28;20041;-80
2022/03/17 03:44:35;;;;;;;17.50;11.77;;;8.60;84.20;;;;;;5031253;28;20061;-81
2022/03/17 03:47:01;;;;;;;20.35;12.15;;;8.60;84.00;;;;;;5022713;28;20083;-81
2022/03/17 03:49:26;;;;;;;18.88;12.88;;;8.60;84.00;;;;;;5026300;28;20439;-82
2022/03/17 03:51:52;;;;;;;20.45;12.88;;;8.50;83.80;;;;;;5051686;28;20029;-81
2022/03/17 03:54:18;;;;;;;19.05;12.55;;;8.50;83.80;;;;;;5022440;28;20320;-81
2022/03/17 03:56:53;;;;;;;20.92;13.18;;;8.50;83.80;;;;;;5023607;28;20033;-81
2022/03/17 03:59:21;;;;;;;19.90;13.82;;;8.40;83.60;;;;;;5025254;28;20049;-81
2022/03/17 04:01:52;;;;;;;22.92;13.27;;;8.40;83.70;;;;;;5016376;28;20030;-83
2022/03/17 04:04:19;;;;;;;20.52;12.30;;;8.40;83.70;;;;;;5029160;28;20061;-80
2022/03/17 04:06:46;;;;;;;19.67;13.45;;;8.40;83.50;;;;;;5030993;28;20473;-81
2022/03/17 04:09:20;;;;;;;19.65;12.98;;;8.40;83.60;;;;;;5027745;28;20033;-80
2022/03/17 04:11:46;;;;;;;19.52;13.00;;;8.40;83.70;;;;;;5025020;28;20069;-80
2022/03/17 04:14:13;;;;;;;19.65;11.52;;;8.40;83.70;;;;;;5040004;28;20550;-82
2022/03/17 04:16:39;;;;;;;19.02;12.90;;;8.40;83.60;;;;;;5027116;28;20033;-82
2022/03/17 04:19:05;;;;;;;16.00;11.55;;;8.40;83.60;;;;;;5033157;28;20071;-81
2022/03/17 04:21:32;;;;;;;19.40;12.15;;;8.40;83.40;;;;;;5035980;28;20172;-80
2022/03/17 04:23:59;;;;;;;17.98;12.40;;;8.30;83.40;;;;;;5025821;28;20096;-81
2022/03/17 04:26:26;;;;;;;18.67;11.45;;;8.30;83.30;;;;;;5034422;28;20036;-81
2022/03/17 04:28:52;;;;;;;16.63;11.48;;;8.30;83.30;;;;;;5032438;28;20084;-82
2022/03/17 04:31:18;;;;;;;15.10;10.55;;;8.20;82.50;;;;;;5023277;28;20249;-81
2022/03/17 04:33:44;;;;;;;15.25;10.38;;;8.20;82.10;;;;;;5030223;28;20025;-83
2022/03/17 04:36:12;;;;;;;13.45;9.40;;;8.20;81.40;;;;;;5032135;28;20053;-80
2022/03/17 04:38:38;;;;;;;15.25;9.65;;;8.20;81.60;;;;;;5026187;28;20029;-82
2022/03/17 04:41:04;;;;;;;12.95;9.13;;;8.20;81.50;;;;;;5026407;28;20029;-81
2022/03/17 04:43:30;;;;;;;14.73;9.50;;;8.30;81.00;;;;;;5039840;28;20435;-81
2022/03/17 04:45:55;;;;;;;14.18;8.63;;;8.20;80.70;;;;;;5028864;28;20033;-81
2022/03/17 04:48:22;;;;;;;12.20;9.10;;;8.20;80.20;;;;;;5036878;28;20042;-80
2022/03/17 04:50:48;;;;;;;12.60;8.23;;;8.20;80.20;;;;;;5038820;28;20037;-83
2022/03/17 04:53:32;;;;;;;15.35;9.57;;;8.20;80.20;;;;;;5030377;28;20037;-83
2022/03/17 04:56:10;;;;;;;13.75;8.35;;;8.20;80.10;;;;;;5027084;28;20033;-82
2022/03/17 04:58:41;;;;;;;14.85;8.98;;;8.30;80.30;;;;;;5027106;28;20113;-82
2022/03/17 05:01:09;;;;;;;11.40;7.80;;;8.30;80.30;;;;;;5025601;28;20037;-80
2022/03/17 05:03:36;;;;;;;12.85;9.48;;;8.20;80.40;;;;;;5033887;28;20120;-80
2022/03/17 05:06:03;;;;;;;12.80;8.90;;;8.20;80.70;;;;;;5024216;28;20083;-81
2022/03/17 05:08:29;;;;;;;18.90;10.05;;;8.20;80.90;;;;;;5028561;28;20559;-81
2022/03/17 05:10:55;;;;;;;13.85;9.55;;;8.20;81.20;;;;;;5018534;28;20030;-82
2022/03/17 05:13:23;;;;;;;13.43;9.57;;;8.10;81.30;;;;;;5025538;28;20061;-80
2022/03/17 05:15:51;;;;;;;18.60;9.75;;;8.10;81.50;;;;;;5034455;28;20041;-81
2022/03/17 05:18:17;;;;;;;16.77;10.52;;;8.20;81.60;;;;;;5034826;28;20033;-82
2022/03/17 05:20:43;;;;;;;14.85;10.10;;;8.10;81.60;;;;;;5036329;28;20040;-82
2022/03/17 05:23:11;;;;;;;18.20;9.93;;;8.20;81.70;;;;;;5028467;28;20547;-82
2022/03/17 05:25:40;;;;;;;16.35;9.77;;;8.10;81.70;;;;;;5022439;28;20034;-80
2022/03/17 05:28:08;;;;;;;14.85;10.00;;;8.20;81.70;;;;;;5027922;28;20029;-82
2022/03/17 05:30:35;;;;;;;14.93;10.27;;;8.20;81.70;;;;;;5022009;28;20061;-80
2022/03/17 05:33:01;;;;;;;14.52;10.25;;;8.20;81.60;;;;;;5030326;28;20081;-81
2022/03/17 05:35:27;;;;;;;18.10;10.80;;;8.20;81.60;;;;;;5027058;28;20087;-83
2022/03/17 05:37:54;;;;;;;15.70;11.07;;;8.10;81.50;;;;;;5027647;28;20388;-82
2022/03/17 05:40:21;;;;;;;13.20;9.85;;;8.10;81.70;;;;;;5025618;28;20064;-81
2022/03/17 05:42:49;;;;;;;16.80;11.02;;;8.10;81.70;;;;;;5027838;28;20104;-83
2022/03/17 05:45:16;;;;;;;14.95;11.18;;;8.20;81.70;;;;;;5029677;28;20044;-82
2022/03/17 05:48:02;;;;;;;19.45;11.63;;;8.20;81.70;;;;;;5028700;28;20070;-80
2022/03/17 05:50:32;;;;;;;19.48;11.02;;;8.20;81.70;;;;;;5024905;28;20090;-81
2022/03/17 05:52:58;;;;;;;19.23;11.82;;;8.20;81.80;;;;;;5021241;28;20045;-82
2022/03/17 05:55:25;;;;;;;15.98;10.82;;;8.10;81.90;;;;;;5026765;28;21022;-82
2022/03/17 05:57:52;;;;;;;14.32;10.45;;;8.20;81.80;;;;;;5024853;28;20069;-81
2022/03/17 06:00:20;;;;;;;20.42;11.80;;;8.20;81.80;;;;;;5022795;28;20042;-81
2022/03/17 06:02:46;;;;;;;16.88;11.23;;;8.10;81.90;;;;;;5026544;28;20392;-80
2022/03/17 06:05:12;;;;;;;18.23;11.40;;;8.20;81.70;;;;;;5025846;28;20477;-79
2022/03/17 06:08:05;;;;;;;14.52;10.90;;;8.20;81.50;;;;;;5029606;28;20500;-82
2022/03/17 06:10:33;;;;;;;18.02;10.80;;;8.10;81.00;;;;;;5025778;28;20029;-81
2022/03/17 06:13:00;;;;;;;15.57;10.77;;;8.10;81.00;;;;;;5023903;28;20112;-82
2022/03/17 06:15:27;;;;;;;15.23;10.98;;;8.20;81.00;;;;;;5020719;28;20040;-82
2022/03/17 06:18:00;;;;;;;16.88;10.55;;;8.20;81.10;;;;;;5022110;28;20033;-82
2022/03/17 06:20:31;;;;;;;14.43;10.48;;;8.20;80.80;;;;;;5020542;28;20053;-82
2022/03/17 06:22:59;;;;;;;17.67;11.05;;;8.10;81.00;;;;;;5026252;28;20145;-79
2022/03/17 06:25:27;;;;;;;16.25;11.30;;;8.20;81.20;;;;;;5027782;28;20033;-79
2022/03/17 06:27:53;;;;;;;18.10;10.02;;;8.10;81.10;;;;;;5030202;28;20071;-79
2022/03/17 06:30:24;;;;;;;14.77;9.88;;;8.20;81.00;;;;;;5025889;28;20034;-78
2022/03/17 06:32:50;;;;;;;15.07;9.82;;;8.20;80.60;;;;;;5042211;28;20064;-77
2022/03/17 06:35:18;;;;;;;12.77;9.57;;;8.20;80.50;;;;;;5019481;28;20065;-75
2022/03/17 06:37:46;;;;;;;15.00;9.48;;;8.10;80.70;;;;;;5013953;28;20419;-75
2022/03/17 06:40:13;;;;;;;11.25;8.07;;;8.10;80.50;;;;;;5019179;28;20045;-74
2022/03/17 06:42:38;;;;;;;11.52;7.40;;;8.10;80.40;;;;;;5019421;28;20038;-74
2022/03/17 06:45:05;;;;;;;11.75;7.03;;;8.10;79.20;;;;;;5020323;28;20060;-74
2022/03/17 06:47:30;;;;;;;11.68;6.65;;;8.10;78.10;;;;;;5024749;28;20041;-74
2022/03/17 06:49:56;;;;;;;10.07;6.68;;;8.10;78.10;;;;;;5023749;28;20440;-75
2022/03/17 06:52:22;;;;;;;10.43;6.57;;;8.10;77.90;;;;;;5022453;28;20381;-74
2022/03/17 06:54:51;;;;;;;12.10;7.15;;;8.20;77.90;;;;;;5025998;28;20041;-74
2022/03/17 06:57:21;;;;;;;11.32;6.78;;;8.20;78.20;;;;;;5024725;28;20025;-75
2022/03/17 06:59:48;;;;;;;13.07;7.70;;;8.20;78.40;;;;;;5021220;28;20336;-76
2022/03/17 07:02:15;;;;;;;10.38;6.85;;;8.20;78.70;;;;;;5024588;28;20037;-75
2022/03/17 07:04:41;;;;;;;13.95;7.60;;;8.20;79.10;;;;;;5020719;28;20030;-75
2022/03/17 07:07:07;;;;;;;10.93;6.30;;;8.20;79.10;;;;;;5028950;28;20080;-75
2022/03/17 07:09:33;;;;;;;11.65;6.95;;;8.10;78.30;;;;;;5019733;28;20132;-74
2022/03/17 07:11:59;;;;;;;10.38;6.00;;;8.10;78.50;;;;;;5023112;28;20237;-75
2022/03/17 07:14:24;;;;;;;11.40;5.20;;;8.10;77.70;;;;;;5019729;28;20251;-75
2022/03/17 07:16:50;;;;;;;9.55;4.90;;;8.10;76.40;;;;;;5026333;28;20995;-75
2022/03/17 07:19:16;;;;;;;9.30;4.75;;;8.10;75.90;;;;;;5027800;28;20128;-76
2022/03/17 07:21:42;;;;;;;9.98;5.68;;;8.10;75.90;;;;;;5023506;28;20046;-75
2022/03/17 07:24:09;;;;;;;7.72;4.60;;;8.20;76.10;;;;;;5056811;28;20747;-76
2022/03/17 07:26:35;;;;;;;7.97;4.80;;;8.20;75.50;;;;;;5020170;28;20663;-75
2022/03/17 07:29:02;;;;;;;10.63;4.47;;;8.20;75.10;;;;;;5023405;28;20032;-75
2022/03/17 07:31:28;;;;;;;9.45;5.18;;;8.30;75.40;;;;;;5021537;28;20153;-75
2022/03/17 07:33:54;;;;;;;9.00;5.15;;;8.30;75.80;;;;;;5024037;28;20038;-75
2022/03/17 07:36:21;;;;;;;10.07;5.70;;;8.30;75.90;;;;;;5021115;28;20053;-75
2022/03/17 07:38:47;;;;;;;7.95;5.00;;;8.40;76.10;;;;;;5037457;28;20069;-75
2022/03/17 07:41:13;;;;;;;9.98;5.40;;;8.40;76.00;;;;;;5029534;28;20029;-76
2022/03/17 07:43:43;;;;;;;11.70;6.03;;;8.40;75.80;;;;;;5034024;28;20054;-78
2022/03/17 07:46:11;;;;;;;11.48;5.55;;;8.40;76.00;;;;;;5045810;28;20262;-78
2022/03/17 07:48:37;;;;;;;10.23;5.63;;;8.40;75.90;;;;;;5050549;28;20017;-76
2022/03/17 07:51:02;;;;;;;10.35;5.38;;;8.40;76.10;;;;;;5047149;28;20053;-79
2022/03/17 07:53:29;;;;;;;10.48;5.75;;;8.40;76.10;;;;;;5043442;28;20112;-77
2022/03/17 07:55:55;;;;;;;10.98;5.43;;;8.40;76.40;;;;;;5034233;28;20051;-75
2022/03/17 07:58:27;;;;;;;11.27;6.05;;;8.40;76.50;;;;;;5023720;28;20140;-75
2022/03/17 08:00:57;;;;;;;11.02;5.78;;;8.40;76.40;;;;;;5035456;28;20038;-76
2022/03/17 08:03:23;;;;;;;12.90;5.70;;;8.40;76.40;;;;;;5031672;28;20083;-75
2022/03/17 08:05:50;;;;;;;12.82;6.20;;;8.40;76.30;;;;;;5027300;28;20025;-78
2022/03/17 08:08:18;;;;;;;9.25;5.63;;;8.30;76.30;;;;;;5030848;28;20029;-77
2022/03/17 08:10:45;;;;;;;9.93;5.45;;;8.30;76.40;;;;;;5013539;28;20068;-78
2022/03/17 08:13:11;;;;;;;11.00;4.95;;;8.20;76.20;;;;;;5020278;28;20062;-78
2022/03/17 08:15:37;;;;;;;11.40;5.70;;;8.20;76.30;;;;;;5032288;28;20037;-77
2022/03/17 08:18:07;;;;;;;8.10;5.15;;;8.20;76.40;;;;;;5022602;28;20523;-79
2022/03/17 08:20:42;;;;;;;11.13;5.10;;;8.20;76.40;;;;;;5035080;28;20419;-75
2022/03/17 08:23:09;;;;;;;11.23;5.45;;;8.30;76.40;;;;;;5024172;28;20061;-79
2022/03/17 08:25:36;;;;;;;9.63;5.30;;;8.20;76.40;;;;;;5033994;28;20346;-78
2022/03/17 08:28:03;;;;;;;10.43;5.10;;;8.30;76.50;;;;;;5016104;28;20030;-76
2022/03/17 08:30:32;;;;;;;10.45;5.13;;;8.30;76.30;;;;;;5021281;28;20079;-74
2022/03/17 08:32:59;;;;;;;14.93;7.18;;;8.30;76.40;;;;;;5032033;28;20041;-78
2022/03/17 08:35:27;;;;;;;15.73;6.85;;;8.30;76.80;;;;;;5026646;28;20057;-76
2022/03/17 08:37:53;;;;;;;12.82;6.32;;;8.30;76.90;;;;;;5025679;28;20064;-79
2022/03/17 08:40:20;;;;;;;13.63;6.53;;;8.30;76.90;;;;;;5019034;28;20053;-77
2022/03/17 08:42:46;;;;;;;10.52;5.55;;;8.40;76.90;;;;;;5019087;28;20107;-76
2022/03/17 08:50:44;;;;;;;9.33;5.27;;;8.40;76.90;;;;;;5018945;28;19943;-77
2022/03/17 08:53:11;;;;;;;12.57;6.80;;;8.40;77.00;;;;;;5018698;28;20365;-78
2022/03/17 08:55:37;;;;;;;11.43;6.40;;;8.40;77.20;;;;;;5027662;28;20033;-77
2022/03/17 08:58:07;;;;;;;12.50;6.53;;;8.30;77.50;;;;;;5019132;28;20083;-80
2022/03/17 09:00:34;;;;;;;11.48;5.80;;;8.30;77.50;;;;;;5021270;28;20042;-80
2022/03/17 09:03:07;;;;;;;12.38;5.90;;;8.20;77.70;;;;;;5030822;28;20022;-76
2022/03/17 09:05:35;;;;;;;13.50;6.70;;;8.20;77.80;;;;;;5030230;28;20033;-78
2022/03/17 09:08:04;;;;;;;10.85;6.35;;;8.20;78.20;;;;;;5025937;28;20467;-78
2022/03/17 09:10:31;;;;;;;14.60;7.20;;;8.20;78.30;;;;;;5021359;28;20025;-78
2022/03/17 09:12:57;;;;;;;11.85;6.63;;;8.20;78.50;;;;;;5024340;28;20067;-75
2022/03/17 09:15:24;;;;;;;11.07;6.05;;;8.30;78.60;;;;;;5025229;28;20049;-77
2022/03/17 09:17:51;;;;;;;9.80;6.53;;;8.20;78.70;;;;;;5028881;28;20111;-77
2022/03/17 09:20:16;;;;;;;13.63;6.93;;;8.30;79.00;;;;;;5031959;28;20052;-75
2022/03/17 09:22:43;;;;;;;14.20;7.07;;;8.30;78.90;;;;;;5031877;28;20029;-77
2022/03/17 09:25:11;;;;;;;10.93;6.85;;;8.30;78.80;;;;;;5027280;28;20043;-80
2022/03/17 09:27:37;;;;;;;12.00;7.25;;;8.30;78.80;;;;;;5022077;28;20029;-77
2022/03/17 09:30:05;;;;;;;11.25;6.97;;;8.30;78.80;;;;;;5022523;28;20060;-80
2022/03/17 09:32:32;;;;;;;15.93;7.55;;;8.20;78.60;;;;;;5024497;28;20374;-77
2022/03/17 09:34:58;;;;;;;14.55;6.70;;;8.30;78.30;;;;;;5026997;28;20026;-76
2022/03/17 09:37:25;;;;;;;10.95;6.57;;;8.30;78.30;;;;;;5016816;28;20397;-78
2022/03/17 09:39:51;;;;;;;14.13;7.25;;;8.40;78.30;;;;;;5023215;28;20030;-77
2022/03/17 09:42:19;;;;;;;16.75;8.32;;;8.40;78.20;;;;;;5023162;28;20492;-78
2022/03/17 09:44:47;;;;;;;12.27;7.18;;;8.40;78.30;;;;;;5021431;28;20052;-77
2022/03/17 09:47:21;;;;;;;15.18;8.70;;;8.50;77.90;;;;;;5019615;28;20029;-78
2022/03/17 09:49:49;;;;;;;15.88;7.93;;;8.60;77.80;;;;;;5021831;28;20523;-80
2022/03/17 09:52:17;;;;;;;15.57;7.25;;;8.60;77.50;;;;;;5025542;28;20017;-76
2022/03/17 09:54:45;;;;;;;12.60;6.97;;;8.70;77.50;;;;;;5029867;28;20033;-76
2022/03/17 09:57:12;;;;;;;14.80;7.28;;;8.70;77.40;;;;;;5019586;28;20021;-74
2022/03/17 09:59:39;;;;;;;16.27;7.78;;;8.90;76.80;;;;;;5019050;28;20121;-76
2022/03/17 10:02:05;;;;;;;17.42;7.53;;;9.00;76.40;;;;;;5024888;28;20060;-77
2022/03/17 10:04:32;;;;;;;13.82;7.82;;;9.10;76.30;;;;;;5027525;28;20034;-76
2022/03/17 10:07:00;;;;;;;13.10;8.32;;;9.10;76.40;;;;;;5020449;28;20053;-76
2022/03/17 10:09:29;;;;;;;13.57;7.70;;;9.20;76.00;;;;;;5021933;28;20032;-77
2022/03/17 10:12:08;;;;;;;14.30;7.85;;;9.20;75.30;;;;;;5014354;28;20030;-77
2022/03/17 10:14:43;;;;;;;15.98;7.97;;;9.30;75.20;;;;;;5017525;28;20025;-78
2022/03/17 10:17:33;;;;;;;;;;;9.30;75.30;;;;;;5015080;28;20083;-80
2022/03/17 10:20:22;;;;;;;13.73;6.90;;;9.30;74.50;;;;;;5020010;28;19917;-74
2022/03/17 10:22:49;;;;;;;13.85;7.30;;;9.50;74.70;;;;;;5018244;28;20459;-80
2022/03/17 10:25:20;;;;;;;11.65;6.15;;;9.60;73.60;;;;;;5017753;28;20420;-81
2022/03/17 10:27:49;;;;;;;9.88;5.57;;;9.70;73.00;;;;;;5019077;28;20034;-78
2022/03/17 10:30:23;;;;;;;8.68;5.07;;;9.80;70.80;;;;;;5013709;28;20091;-78
2022/03/17 10:33:04;;;;;;;11.85;5.70;;;9.80;70.30;;;;;;5021903;28;20122;-80
2022/03/17 10:35:35;;;;;;;7.90;4.15;;;10.10;71.00;;;;;;5021423;28;20738;-75
2022/03/17 10:38:12;;;;;;;9.57;3.80;;;10.20;67.50;;;;;;5019595;28;20025;-76
2022/03/17 10:40:39;;;;;;;7.40;3.72;;;10.20;66.80;;;;;;5028902;28;20329;-79
2022/03/17 10:43:23;;;;;;;7.88;3.25;;;10.40;65.80;;;;;;5020641;28;20550;-78
2022/03/17 10:46:04;;;;;;;8.65;3.97;;;10.70;64.40;;;;;;5017706;28;20022;-75
2022/03/17 10:48:30;;;;;;;10.82;3.65;;;11.10;64.20;;;;;;5028464;28;20044;-75
2022/03/17 10:50:56;;;;;;;8.57;4.38;;;11.60;64.00;;;;;;5022244;28;20033;-75
2022/03/17 10:53:30;;;;;;;9.57;3.75;;;11.80;62.50;;;;;;5030733;28;20468;-75
2022/03/17 10:56:12;;;;;;;8.45;3.10;;;11.70;60.30;;;;;;5016943;28;20084;-75
2022/03/17 10:58:42;;;;;;;7.07;3.03;;;11.80;58.40;;;;;;5020549;28;20084;-76
2022/03/17 11:01:08;;;;;;;6.32;3.30;;;11.90;59.20;;;;;;5023426;28;20142;-75
2022/03/17 11:03:34;;;;;;;8.88;4.20;;;12.00;58.00;;;;;;5024514;28;20428;-74
2022/03/17 11:06:03;;;;;;;8.48;3.78;;;12.10;59.30;;;;;;5017612;28;20116;-75
2022/03/17 11:08:31;;;;;;;7.38;3.15;;;12.20;59.20;;;;;;5026571;28;20048;-76
2022/03/17 11:10:59;;;;;;;6.95;3.08;;;11.90;56.10;;;;;;5030205;28;20044;-75
2022/03/17 11:13:26;;;;;;;7.60;3.00;;;11.70;56.80;;;;;;5024692;28;20075;-75
2022/03/17 11:16:04;;;;;;;10.05;3.83;;;12.20;57.90;;;;;;5022709;28;20453;-75
2022/03/17 11:18:36;;;;;;;8.52;4.18;;;12.20;57.60;;;;;;5016519;28;20037;-76
2022/03/17 11:21:21;;;;;;;11.25;5.07;;;11.90;58.50;;;;;;5016812;28;20057;-77
2022/03/17 11:23:55;;;;;;;;;;;12.00;59.70;;;;;;5009071;28;20048;-75
2022/03/17 11:26:41;;;;;;;12.80;4.55;;;12.30;60.10;;;;;;5009880;28;19921;-75
2022/03/17 11:29:10;;;;;;;7.97;3.72;;;12.60;58.30;;;;;;5010344;28;20041;-74
2022/03/17 11:31:55;;;;;;;8.10;3.58;;;12.10;57.50;;;;;;5006154;28;20081;-74
2022/03/17 11:34:38;;;;;;;7.65;4.00;;;12.20;58.80;;;;;;5008441;28;20112;-77
2022/03/17 11:37:19;;;;;;;7.55;3.53;;;12.30;57.10;;;;;;5007669;28;20037;-76
2022/03/17 11:39:53;;;;;;;7.05;4.22;;;12.30;57.70;;;;;;5013674;28;20049;-76
2022/03/17 11:42:31;;;;;;;8.35;3.88;;;12.20;58.70;;;;;;5006335;28;20029;-75
2022/03/17 11:45:23;;;;;;;11.60;4.72;;;12.00;58.40;;;;;;5013699;28;20117;-76
2022/03/17 11:47:58;;;;;;;11.75;3.95;;;12.10;59.50;;;;;;4998827;28;20112;-75
2022/03/17 11:50:40;;;;;;;8.52;3.90;;;12.40;58.00;;;;;;5009890;28;20541;-74
2022/03/17 11:53:20;;;;;;;7.30;3.28;;;12.50;55.40;;;;;;5012161;28;20125;-75
2022/03/17 11:55:46;;;;;;;9.57;3.95;;;12.80;56.80;;;;;;5012735;28;20128;-75
2022/03/17 11:58:26;;;;;;;11.23;4.20;;;13.00;57.00;;;;;;5013156;28;20042;-76
2022/03/17 12:01:03;;;;;;;8.02;3.95;;;13.00;56.20;;;;;;5008844;28;20429;-75
2022/03/17 12:03:32;;;;;;;9.23;3.80;;;12.70;58.30;;;;;;5008003;28;20525;-75
2022/03/17 12:06:28;;;;;;;8.90;3.90;;;12.90;57.00;;;;;;5012808;28;20034;-76
2022/03/17 12:09:00;;;;;;;9.50;3.47;;;12.80;56.00;;;;;;5009991;28;20040;-75
2022/03/17 12:11:44;;;;;;;8.93;4.10;;;13.00;56.30;;;;;;5007671;28;20132;-76
2022/03/17 12:16:56;;;;;;;15.15;5.25;;;12.90;54.00;;;;;;5013412;28;20042;-76
2022/03/17 12:19:26;;;;;;;8.93;3.22;;;12.90;54.40;;;;;;5010266;28;20041;-75
2022/03/17 12:21:58;;;;;;;10.00;4.18;;;13.00;54.70;;;;;;5024036;28;20375;-75
2022/03/17 12:25:01;;;;;;;9.25;2.85;;;12.80;53.10;;;;;;5019166;28;20194;-75
2022/03/17 12:27:35;;;;;;;7.72;2.60;;;12.60;51.30;;;;;;5023861;28;20095;-75
2022/03/17 12:30:13;;;;;;;8.20;2.78;;;12.50;51.20;;;;;;5029557;28;20447;-75
2022/03/17 12:32:44;;;;;;;6.50;2.42;;;12.70;51.50;;;;;;5018529;28;20033;-75
2022/03/17 12:35:11;;;;;;;8.50;2.85;;;12.90;50.50;;;;;;5025487;28;20048;-76
2022/03/17 12:37:39;;;;;;;9.60;2.88;;;13.00;49.50;;;;;;5023912;28;20029;-76
2022/03/17 12:40:15;;;;;;;8.05;2.67;;;12.80;49.80;;;;;;5025159;28;20079;-75
2022/03/17 12:42:44;;;;;;;8.40;2.35;;;12.80;51.50;;;;;;5029313;28;20043;-75
2022/03/17 12:45:18;;;;;;;7.05;2.50;;;12.90;49.80;;;;;;5027434;28;20361;-75
2022/03/17 12:47:46;;;;;;;6.97;2.50;;;12.80;50.70;;;;;;5029965;28;20033;-76
2022/03/17 12:50:20;;;;;;;6.45;2.65;;;12.90;49.50;;;;;;5037839;28;20665;-74
2022/03/17 12:52:48;;;;;;;6.78;2.90;;;13.10;50.30;;;;;;5033850;28;20516;-74
2022/03/17 12:55:17;;;;;;;7.38;3.05;;;13.30;49.40;;;;;;5032911;28;20021;-74
2022/03/17 12:57:43;;;;;;;7.75;2.70;;;13.00;48.80;;;;;;5028724;28;20037;-75
2022/03/17 13:00:13;;;;;;;6.53;2.63;;;13.10;50.00;;;;;;5031127;28;20042;-75
2022/03/17 13:02:46;;;;;;;7.43;2.20;;;13.10;49.50;;;;;;5033727;28;20480;-74
2022/03/17 13:07:59;;;;;;;9.38;3.60;;;13.20;48.30;;;;;;5014103;28;20044;-75
2022/03/17 13:10:27;;;;;;;6.75;2.58;;;13.30;48.40;;;;;;5014486;28;20037;-75